sensor_id;sensor_type;location;lat;lon;timestamp;P1;durP1;ratioP1;P2;durP2;ratioP2
51066;SDS011;37112;45.892;-123.962;2023-05-07T00:02:00;13.60;;;1.70;;
51066;SDS011;37112;45.892;-123.962;2023-05-07T00:04:34;9.10;;;1.50;;
51066;SDS011;37112;45.892;-123.962;2023-05-07T00:07:08;6.30;;;1.70;;
51066;SDS011;37112;45.892;-123.962;2023-05-07T00:09:45;12.50;;;1.80;;
51066;SDS011;37112;45.892;-123.962;2023-05-07T00:12:19;6.20;;;1.50;;
51066;SDS011;37112;45.892;-123.962;2023-05-07T00:14:53;8.60;;;1.20;;
51066;SDS011;37112;45.892;-123.962;2023-05-07T00:17:29;6.40;;;1.60;;
51066;SDS011;37112;45.892;-123.962;2023-05-07T00:20:04;6.80;;;0.90;;
51066;SDS011;37112;45.892;-123.962;2023-05-07T00:22:33;11.50;;;1.50;;
51066;SDS011;37112;45.892;-123.962;2023-05-07T00:25:09;12.10;;;1.80;;
51066;SDS011;37112;45.892;-123.962;2023-05-07T00:27:37;7.10;;;1.60;;
51066;SDS011;37112;45.892;-123.962;2023-05-07T00:30:12;4.80;;;1.00;;
51066;SDS011;37112;45.892;-123.962;2023-05-07T00:32:47;6.90;;;1.10;;
51066;SDS011;37112;45.892;-123.962;2023-05-07T00:35:24;6.50;;;1.10;;
51066;SDS011;37112;45.892;-123.962;2023-05-07T00:37:59;11.80;;;1.40;;
51066;SDS011;37112;45.892;-123.962;2023-05-07T00:40:36;4.00;;;1.00;;
51066;SDS011;37112;45.892;-123.962;2023-05-07T00:43:11;7.40;;;0.70;;
51066;SDS011;37112;45.892;-123.962;2023-05-07T00:45:46;9.90;;;1.90;;
51066;SDS011;37112;45.892;-123.962;2023-05-07T00:48:09;7.90;;;1.40;;
51066;SDS011;37112;45.892;-123.962;2023-05-07T00:50:41;8.80;;;1.10;;
51066;SDS011;37112;45.892;-123.962;2023-05-07T00:53:15;3.80;;;0.70;;
51066;SDS011;37112;45.892;-123.962;2023-05-07T00:55:51;3.90;;;0.80;;
51066;SDS011;37112;45.892;-123.962;2023-05-07T00:58:18;7.60;;;1.10;;
51066;SDS011;37112;45.892;-123.962;2023-05-07T01:00:42;12.00;;;2.30;;
51066;SDS011;37112;45.892;-123.962;2023-05-07T01:03:16;8.60;;;1.10;;
51066;SDS011;37112;45.892;-123.962;2023-05-07T01:06:00;7.90;;;1.60;;
51066;SDS011;37112;45.892;-123.962;2023-05-07T01:08:37;7.70;;;1.10;;
51066;SDS011;37112;45.892;-123.962;2023-05-07T01:11:01;9.20;;;1.50;;
51066;SDS011;37112;45.892;-123.962;2023-05-07T01:13:27;6.60;;;1.10;;
51066;SDS011;37112;45.892;-123.962;2023-05-07T01:15:51;7.70;;;1.20;;
51066;SDS011;37112;45.892;-123.962;2023-05-07T01:18:25;1.90;;;0.70;;
51066;SDS011;37112;45.892;-123.962;2023-05-07T01:20:53;2.00;;;0.70;;
51066;SDS011;37112;45.892;-123.962;2023-05-07T01:23:29;9.20;;;1.50;;
51066;SDS011;37112;45.892;-123.962;2023-05-07T01:25:54;16.50;;;3.20;;
51066;SDS011;37112;45.892;-123.962;2023-05-07T01:28:18;11.70;;;1.70;;
51066;SDS011;37112;45.892;-123.962;2023-05-07T01:30:54;8.70;;;1.70;;
51066;SDS011;37112;45.892;-123.962;2023-05-07T01:33:33;4.90;;;1.40;;
51066;SDS011;37112;45.892;-123.962;2023-05-07T01:36:08;13.70;;;1.60;;
51066;SDS011;37112;45.892;-123.962;2023-05-07T01:38:43;13.80;;;2.70;;
51066;SDS011;37112;45.892;-123.962;2023-05-07T01:41:11;16.20;;;2.50;;
51066;SDS011;37112;45.892;-123.962;2023-05-07T01:43:46;10.90;;;2.50;;
51066;SDS011;37112;45.892;-123.962;2023-05-07T01:46:22;11.10;;;2.40;;
51066;SDS011;37112;45.892;-123.962;2023-05-07T01:48:58;7.70;;;1.60;;
51066;SDS011;37112;45.892;-123.962;2023-05-07T01:51:22;8.20;;;1.50;;
51066;SDS011;37112;45.892;-123.962;2023-05-07T01:53:57;14.70;;;2.30;;
51066;SDS011;37112;45.892;-123.962;2023-05-07T01:56:21;13.10;;;1.70;;
51066;SDS011;37112;45.892;-123.962;2023-05-07T01:58:55;11.40;;;2.00;;
51066;SDS011;37112;45.892;-123.962;2023-05-07T02:01:31;14.70;;;1.80;;
51066;SDS011;37112;45.892;-123.962;2023-05-07T02:04:05;6.60;;;0.90;;
51066;SDS011;37112;45.892;-123.962;2023-05-07T02:06:40;10.50;;;1.50;;
51066;SDS011;37112;45.892;-123.962;2023-05-07T02:09:03;7.20;;;1.40;;
51066;SDS011;37112;45.892;-123.962;2023-05-07T02:11:38;9.20;;;2.20;;
51066;SDS011;37112;45.892;-123.962;2023-05-07T02:14:03;12.20;;;1.60;;
51066;SDS011;37112;45.892;-123.962;2023-05-07T02:16:38;10.80;;;1.50;;
51066;SDS011;37112;45.892;-123.962;2023-05-07T02:19:11;16.10;;;2.40;;
51066;SDS011;37112;45.892;-123.962;2023-05-07T02:21:46;8.90;;;2.20;;
51066;SDS011;37112;45.892;-123.962;2023-05-07T02:24:21;11.70;;;1.90;;
51066;SDS011;37112;45.892;-123.962;2023-05-07T02:26:45;8.20;;;1.70;;
51066;SDS011;37112;45.892;-123.962;2023-05-07T02:29:07;6.50;;;1.50;;
51066;SDS011;37112;45.892;-123.962;2023-05-07T02:31:41;6.00;;;1.20;;
51066;SDS011;37112;45.892;-123.962;2023-05-07T02:34:15;3.30;;;0.90;;
51066;SDS011;37112;45.892;-123.962;2023-05-07T02:36:48;15.10;;;2.00;;
51066;SDS011;37112;45.892;-123.962;2023-05-07T02:39:23;12.00;;;2.30;;
51066;SDS011;37112;45.892;-123.962;2023-05-07T02:41:50;15.90;;;1.80;;
51066;SDS011;37112;45.892;-123.962;2023-05-07T02:44:24;14.40;;;2.00;;
51066;SDS011;37112;45.892;-123.962;2023-05-07T02:46:40;12.80;;;2.20;;
51066;SDS011;37112;45.892;-123.962;2023-05-07T02:48:57;10.80;;;1.80;;
51066;SDS011;37112;45.892;-123.962;2023-05-07T02:51:14;5.90;;;1.40;;
51066;SDS011;37112;45.892;-123.962;2023-05-07T02:53:42;10.70;;;2.40;;
51066;SDS011;37112;45.892;-123.962;2023-05-07T02:56:01;11.40;;;1.60;;
51066;SDS011;37112;45.892;-123.962;2023-05-07T02:58:35;8.20;;;1.90;;
51066;SDS011;37112;45.892;-123.962;2023-05-07T03:00:54;4.70;;;1.10;;
51066;SDS011;37112;45.892;-123.962;2023-05-07T03:03:37;20.00;;;2.20;;
51066;SDS011;37112;45.892;-123.962;2023-05-07T03:06:12;14.00;;;1.70;;
51066;SDS011;37112;45.892;-123.962;2023-05-07T03:08:28;7.00;;;1.30;;
51066;SDS011;37112;45.892;-123.962;2023-05-07T03:10:55;2.40;;;0.80;;
51066;SDS011;37112;45.892;-123.962;2023-05-07T03:13:10;6.60;;;1.20;;
51066;SDS011;37112;45.892;-123.962;2023-05-07T03:15:45;6.50;;;1.20;;
51066;SDS011;37112;45.892;-123.962;2023-05-07T03:18:08;3.20;;;0.70;;
51066;SDS011;37112;45.892;-123.962;2023-05-07T03:20:26;2.40;;;0.60;;
51066;SDS011;37112;45.892;-123.962;2023-05-07T03:22:51;13.00;;;1.60;;
51066;SDS011;37112;45.892;-123.962;2023-05-07T03:25:23;3.10;;;1.60;;
51066;SDS011;37112;45.892;-123.962;2023-05-07T03:27:38;11.20;;;1.40;;
51066;SDS011;37112;45.892;-123.962;2023-05-07T03:29:57;9.10;;;1.30;;
51066;SDS011;37112;45.892;-123.962;2023-05-07T03:32:15;10.10;;;1.30;;
51066;SDS011;37112;45.892;-123.962;2023-05-07T03:34:39;14.20;;;1.80;;
51066;SDS011;37112;45.892;-123.962;2023-05-07T03:36:56;9.70;;;1.40;;
51066;SDS011;37112;45.892;-123.962;2023-05-07T03:39:24;7.80;;;1.50;;
51066;SDS011;37112;45.892;-123.962;2023-05-07T03:41:43;8.50;;;2.50;;
51066;SDS011;37112;45.892;-123.962;2023-05-07T03:44:01;12.90;;;1.90;;
51066;SDS011;37112;45.892;-123.962;2023-05-07T03:46:18;21.90;;;2.60;;
51066;SDS011;37112;45.892;-123.962;2023-05-07T03:48:54;20.40;;;1.70;;
51066;SDS011;37112;45.892;-123.962;2023-05-07T03:51:14;12.80;;;1.80;;
51066;SDS011;37112;45.892;-123.962;2023-05-07T03:53:36;7.00;;;1.40;;
51066;SDS011;37112;45.892;-123.962;2023-05-07T03:56:10;5.50;;;1.70;;
51066;SDS011;37112;45.892;-123.962;2023-05-07T03:58:46;8.70;;;1.90;;
51066;SDS011;37112;45.892;-123.962;2023-05-07T04:01:13;12.30;;;4.00;;
51066;SDS011;37112;45.892;-123.962;2023-05-07T04:03:37;8.30;;;3.60;;
51066;SDS011;37112;45.892;-123.962;2023-05-07T04:05:56;10.10;;;2.60;;
51066;SDS011;37112;45.892;-123.962;2023-05-07T04:08:14;13.00;;;2.40;;
51066;SDS011;37112;45.892;-123.962;2023-05-07T04:10:32;14.90;;;3.00;;
51066;SDS011;37112;45.892;-123.962;2023-05-07T04:13:10;20.80;;;3.70;;
51066;SDS011;37112;45.892;-123.962;2023-05-07T04:15:43;9.30;;;2.20;;
51066;SDS011;37112;45.892;-123.962;2023-05-07T04:18:03;19.10;;;6.00;;
51066;SDS011;37112;45.892;-123.962;2023-05-07T04:20:54;18.10;;;6.60;;
51066;SDS011;37112;45.892;-123.962;2023-05-07T04:23:25;18.90;;;3.90;;
51066;SDS011;37112;45.892;-123.962;2023-05-07T04:26:06;14.60;;;2.30;;
51066;SDS011;37112;45.892;-123.962;2023-05-07T04:28:40;17.20;;;3.80;;
51066;SDS011;37112;45.892;-123.962;2023-05-07T04:31:08;17.40;;;3.90;;
51066;SDS011;37112;45.892;-123.962;2023-05-07T04:33:43;23.50;;;3.70;;
51066;SDS011;37112;45.892;-123.962;2023-05-07T04:36:09;24.20;;;5.90;;
51066;SDS011;37112;45.892;-123.962;2023-05-07T04:38:33;17.50;;;3.50;;
51066;SDS011;37112;45.892;-123.962;2023-05-07T04:41:08;10.30;;;2.90;;
51066;SDS011;37112;45.892;-123.962;2023-05-07T04:43:45;14.90;;;4.00;;
51066;SDS011;37112;45.892;-123.962;2023-05-07T04:46:17;22.60;;;5.30;;
51066;SDS011;37112;45.892;-123.962;2023-05-07T04:48:41;22.50;;;3.50;;
51066;SDS011;37112;45.892;-123.962;2023-05-07T04:50:59;16.10;;;2.50;;
51066;SDS011;37112;45.892;-123.962;2023-05-07T04:53:23;18.80;;;2.80;;
51066;SDS011;37112;45.892;-123.962;2023-05-07T04:55:57;18.50;;;3.10;;
51066;SDS011;37112;45.892;-123.962;2023-05-07T04:58:16;9.60;;;2.10;;
51066;SDS011;37112;45.892;-123.962;2023-05-07T05:00:50;22.80;;;5.00;;
51066;SDS011;37112;45.892;-123.962;2023-05-07T05:03:14;15.20;;;3.10;;
51066;SDS011;37112;45.892;-123.962;2023-05-07T05:05:38;16.30;;;3.70;;
51066;SDS011;37112;45.892;-123.962;2023-05-07T05:07:55;26.30;;;7.20;;
51066;SDS011;37112;45.892;-123.962;2023-05-07T05:10:30;14.00;;;3.90;;
51066;SDS011;37112;45.892;-123.962;2023-05-07T05:13:04;17.10;;;2.10;;
51066;SDS011;37112;45.892;-123.962;2023-05-07T05:15:42;16.30;;;3.40;;
51066;SDS011;37112;45.892;-123.962;2023-05-07T05:18:10;18.00;;;3.30;;
51066;SDS011;37112;45.892;-123.962;2023-05-07T05:20:43;7.60;;;1.80;;
51066;SDS011;37112;45.892;-123.962;2023-05-07T05:23:04;10.10;;;2.40;;
51066;SDS011;37112;45.892;-123.962;2023-05-07T05:25:20;14.60;;;1.90;;
51066;SDS011;37112;45.892;-123.962;2023-05-07T05:27:42;15.30;;;2.10;;
51066;SDS011;37112;45.892;-123.962;2023-05-07T05:30:05;16.30;;;3.80;;
51066;SDS011;37112;45.892;-123.962;2023-05-07T05:32:33;10.20;;;2.00;;
51066;SDS011;37112;45.892;-123.962;2023-05-07T05:35:01;7.60;;;1.60;;
51066;SDS011;37112;45.892;-123.962;2023-05-07T05:37:36;8.80;;;1.80;;
51066;SDS011;37112;45.892;-123.962;2023-05-07T05:40:00;10.20;;;2.90;;
51066;SDS011;37112;45.892;-123.962;2023-05-07T05:42:27;5.70;;;1.60;;
51066;SDS011;37112;45.892;-123.962;2023-05-07T05:44:45;8.40;;;1.90;;
51066;SDS011;37112;45.892;-123.962;2023-05-07T05:47:06;14.30;;;3.80;;
51066;SDS011;37112;45.892;-123.962;2023-05-07T05:49:40;16.20;;;3.30;;
51066;SDS011;37112;45.892;-123.962;2023-05-07T05:54:28;10.90;;;2.70;;
51066;SDS011;37112;45.892;-123.962;2023-05-07T05:57:06;4.60;;;1.50;;
51066;SDS011;37112;45.892;-123.962;2023-05-07T05:59:34;18.10;;;6.50;;
51066;SDS011;37112;45.892;-123.962;2023-05-07T06:02:09;14.60;;;4.00;;
51066;SDS011;37112;45.892;-123.962;2023-05-07T06:04:37;20.60;;;4.50;;
51066;SDS011;37112;45.892;-123.962;2023-05-07T06:07:09;23.40;;;5.30;;
51066;SDS011;37112;45.892;-123.962;2023-05-07T06:09:43;14.90;;;4.30;;
51066;SDS011;37112;45.892;-123.962;2023-05-07T06:11:57;10.50;;;1.60;;
51066;SDS011;37112;45.892;-123.962;2023-05-07T06:14:15;10.60;;;2.90;;
51066;SDS011;37112;45.892;-123.962;2023-05-07T06:16:49;10.20;;;2.00;;
51066;SDS011;37112;45.892;-123.962;2023-05-07T06:19:15;20.60;;;2.70;;
51066;SDS011;37112;45.892;-123.962;2023-05-07T06:21:42;12.30;;;2.30;;
51066;SDS011;37112;45.892;-123.962;2023-05-07T06:23:59;6.40;;;1.20;;
51066;SDS011;37112;45.892;-123.962;2023-05-07T06:26:33;17.20;;;5.60;;
51066;SDS011;37112;45.892;-123.962;2023-05-07T06:28:56;26.40;;;11.70;;
51066;SDS011;37112;45.892;-123.962;2023-05-07T06:31:19;12.10;;;2.80;;
51066;SDS011;37112;45.892;-123.962;2023-05-07T06:33:42;17.70;;;3.20;;
51066;SDS011;37112;45.892;-123.962;2023-05-07T06:35:57;24.60;;;6.40;;
51066;SDS011;37112;45.892;-123.962;2023-05-07T06:38:21;11.40;;;2.60;;
51066;SDS011;37112;45.892;-123.962;2023-05-07T06:40:50;11.00;;;3.50;;
51066;SDS011;37112;45.892;-123.962;2023-05-07T06:43:26;8.40;;;1.50;;
51066;SDS011;37112;45.892;-123.962;2023-05-07T06:45:59;12.00;;;3.40;;
51066;SDS011;37112;45.892;-123.962;2023-05-07T06:48:26;4.10;;;1.50;;
51066;SDS011;37112;45.892;-123.962;2023-05-07T06:50:44;5.60;;;1.50;;
51066;SDS011;37112;45.892;-123.962;2023-05-07T06:53:12;14.80;;;3.80;;
51066;SDS011;37112;45.892;-123.962;2023-05-07T06:55:39;7.70;;;2.60;;
51066;SDS011;37112;45.892;-123.962;2023-05-07T06:58:08;8.50;;;2.90;;
51066;SDS011;37112;45.892;-123.962;2023-05-07T07:00:44;15.30;;;3.80;;
51066;SDS011;37112;45.892;-123.962;2023-05-07T07:03:20;17.50;;;3.70;;
51066;SDS011;37112;45.892;-123.962;2023-05-07T07:05:47;13.60;;;4.20;;
51066;SDS011;37112;45.892;-123.962;2023-05-07T07:08:24;22.90;;;6.20;;
51066;SDS011;37112;45.892;-123.962;2023-05-07T07:10:58;13.40;;;2.70;;
51066;SDS011;37112;45.892;-123.962;2023-05-07T07:13:26;16.90;;;4.30;;
51066;SDS011;37112;45.892;-123.962;2023-05-07T07:16:00;12.70;;;3.10;;
51066;SDS011;37112;45.892;-123.962;2023-05-07T07:18:35;6.90;;;2.10;;
51066;SDS011;37112;45.892;-123.962;2023-05-07T07:21:12;16.70;;;5.00;;
51066;SDS011;37112;45.892;-123.962;2023-05-07T07:23:48;12.50;;;4.50;;
51066;SDS011;37112;45.892;-123.962;2023-05-07T07:26:22;18.00;;;5.20;;
51066;SDS011;37112;45.892;-123.962;2023-05-07T07:28:56;11.70;;;1.60;;
51066;SDS011;37112;45.892;-123.962;2023-05-07T07:31:31;12.70;;;1.80;;
51066;SDS011;37112;45.892;-123.962;2023-05-07T07:33:54;6.80;;;1.20;;
51066;SDS011;37112;45.892;-123.962;2023-05-07T07:36:28;5.10;;;1.30;;
51066;SDS011;37112;45.892;-123.962;2023-05-07T07:39:12;10.60;;;1.60;;
51066;SDS011;37112;45.892;-123.962;2023-05-07T07:41:47;5.70;;;0.90;;
51066;SDS011;37112;45.892;-123.962;2023-05-07T07:44:22;6.60;;;1.20;;
51066;SDS011;37112;45.892;-123.962;2023-05-07T07:46:57;6.20;;;1.20;;
51066;SDS011;37112;45.892;-123.962;2023-05-07T07:49:31;5.40;;;1.00;;
51066;SDS011;37112;45.892;-123.962;2023-05-07T07:52:06;9.90;;;2.30;;
51066;SDS011;37112;45.892;-123.962;2023-05-07T07:54:41;8.80;;;1.30;;
51066;SDS011;37112;45.892;-123.962;2023-05-07T07:57:15;9.50;;;1.70;;
51066;SDS011;37112;45.892;-123.962;2023-05-07T07:59:48;13.40;;;1.90;;
51066;SDS011;37112;45.892;-123.962;2023-05-07T08:02:14;9.00;;;2.20;;
51066;SDS011;37112;45.892;-123.962;2023-05-07T08:04:49;11.30;;;2.70;;
51066;SDS011;37112;45.892;-123.962;2023-05-07T08:07:12;9.90;;;1.60;;
51066;SDS011;37112;45.892;-123.962;2023-05-07T08:09:51;6.20;;;1.70;;
51066;SDS011;37112;45.892;-123.962;2023-05-07T08:12:25;9.50;;;2.30;;
51066;SDS011;37112;45.892;-123.962;2023-05-07T08:15:00;14.10;;;2.10;;
51066;SDS011;37112;45.892;-123.962;2023-05-07T08:17:34;12.60;;;2.90;;
51066;SDS011;37112;45.892;-123.962;2023-05-07T08:20:11;11.60;;;2.10;;
51066;SDS011;37112;45.892;-123.962;2023-05-07T08:22:34;11.20;;;2.00;;
51066;SDS011;37112;45.892;-123.962;2023-05-07T08:25:10;7.40;;;1.80;;
51066;SDS011;37112;45.892;-123.962;2023-05-07T08:27:45;7.50;;;2.40;;
51066;SDS011;37112;45.892;-123.962;2023-05-07T08:30:20;7.70;;;2.10;;
51066;SDS011;37112;45.892;-123.962;2023-05-07T08:32:44;12.60;;;1.60;;
51066;SDS011;37112;45.892;-123.962;2023-05-07T08:35:09;11.60;;;3.10;;
51066;SDS011;37112;45.892;-123.962;2023-05-07T08:37:37;12.30;;;3.10;;
51066;SDS011;37112;45.892;-123.962;2023-05-07T08:40:12;13.00;;;2.80;;
51066;SDS011;37112;45.892;-123.962;2023-05-07T08:42:48;7.00;;;1.70;;
51066;SDS011;37112;45.892;-123.962;2023-05-07T08:45:23;7.70;;;1.80;;
51066;SDS011;37112;45.892;-123.962;2023-05-07T08:47:46;14.30;;;2.30;;
51066;SDS011;37112;45.892;-123.962;2023-05-07T08:50:19;9.90;;;1.70;;
51066;SDS011;37112;45.892;-123.962;2023-05-07T08:52:54;14.70;;;2.10;;
51066;SDS011;37112;45.892;-123.962;2023-05-07T08:55:20;10.40;;;1.90;;
51066;SDS011;37112;45.892;-123.962;2023-05-07T08:57:54;8.00;;;1.60;;
51066;SDS011;37112;45.892;-123.962;2023-05-07T09:00:42;7.30;;;1.90;;
51066;SDS011;37112;45.892;-123.962;2023-05-07T09:03:17;8.80;;;1.90;;
51066;SDS011;37112;45.892;-123.962;2023-05-07T09:05:40;8.10;;;1.90;;
51066;SDS011;37112;45.892;-123.962;2023-05-07T09:08:08;5.00;;;2.60;;
51066;SDS011;37112;45.892;-123.962;2023-05-07T09:10:40;10.70;;;2.30;;
51066;SDS011;37112;45.892;-123.962;2023-05-07T09:13:07;28.20;;;4.00;;
51066;SDS011;37112;45.892;-123.962;2023-05-07T09:15:44;11.50;;;2.70;;
51066;SDS011;37112;45.892;-123.962;2023-05-07T09:18:20;11.10;;;2.80;;
51066;SDS011;37112;45.892;-123.962;2023-05-07T09:20:55;6.00;;;2.40;;
51066;SDS011;37112;45.892;-123.962;2023-05-07T09:23:28;11.90;;;2.30;;
51066;SDS011;37112;45.892;-123.962;2023-05-07T09:26:02;8.90;;;1.80;;
51066;SDS011;37112;45.892;-123.962;2023-05-07T09:28:30;14.00;;;2.60;;
51066;SDS011;37112;45.892;-123.962;2023-05-07T09:31:09;14.40;;;2.40;;
51066;SDS011;37112;45.892;-123.962;2023-05-07T09:33:47;9.20;;;2.50;;
51066;SDS011;37112;45.892;-123.962;2023-05-07T09:36:24;11.80;;;2.10;;
51066;SDS011;37112;45.892;-123.962;2023-05-07T09:38:46;10.30;;;2.00;;
51066;SDS011;37112;45.892;-123.962;2023-05-07T09:41:21;10.20;;;1.90;;
51066;SDS011;37112;45.892;-123.962;2023-05-07T09:43:55;7.60;;;1.70;;
51066;SDS011;37112;45.892;-123.962;2023-05-07T09:46:30;9.70;;;1.70;;
51066;SDS011;37112;45.892;-123.962;2023-05-07T09:49:09;10.20;;;2.00;;
51066;SDS011;37112;45.892;-123.962;2023-05-07T09:51:51;10.70;;;2.20;;
51066;SDS011;37112;45.892;-123.962;2023-05-07T09:54:19;12.90;;;1.90;;
51066;SDS011;37112;45.892;-123.962;2023-05-07T09:56:55;6.30;;;2.80;;
51066;SDS011;37112;45.892;-123.962;2023-05-07T09:59:33;9.60;;;1.80;;
51066;SDS011;37112;45.892;-123.962;2023-05-07T10:02:09;8.00;;;1.40;;
51066;SDS011;37112;45.892;-123.962;2023-05-07T10:04:40;11.00;;;2.10;;
51066;SDS011;37112;45.892;-123.962;2023-05-07T10:07:15;13.00;;;3.00;;
51066;SDS011;37112;45.892;-123.962;2023-05-07T10:09:51;11.70;;;2.40;;
51066;SDS011;37112;45.892;-123.962;2023-05-07T10:12:28;10.80;;;2.00;;
51066;SDS011;37112;45.892;-123.962;2023-05-07T10:15:08;13.80;;;1.90;;
51066;SDS011;37112;45.892;-123.962;2023-05-07T10:17:43;16.40;;;2.90;;
51066;SDS011;37112;45.892;-123.962;2023-05-07T10:20:10;7.80;;;1.90;;
51066;SDS011;37112;45.892;-123.962;2023-05-07T10:22:45;11.00;;;2.00;;
51066;SDS011;37112;45.892;-123.962;2023-05-07T10:25:14;8.50;;;1.60;;
51066;SDS011;37112;45.892;-123.962;2023-05-07T10:27:47;12.30;;;1.40;;
51066;SDS011;37112;45.892;-123.962;2023-05-07T10:30:30;10.60;;;2.50;;
51066;SDS011;37112;45.892;-123.962;2023-05-07T10:33:12;7.60;;;1.80;;
51066;SDS011;37112;45.892;-123.962;2023-05-07T10:35:50;10.60;;;1.70;;
51066;SDS011;37112;45.892;-123.962;2023-05-07T10:38:27;8.80;;;3.10;;
51066;SDS011;37112;45.892;-123.962;2023-05-07T10:40:55;12.20;;;2.50;;
51066;SDS011;37112;45.892;-123.962;2023-05-07T10:43:40;11.00;;;2.10;;
51066;SDS011;37112;45.892;-123.962;2023-05-07T10:46:16;13.00;;;1.80;;
51066;SDS011;37112;45.892;-123.962;2023-05-07T10:49:10;12.70;;;2.80;;
51066;SDS011;37112;45.892;-123.962;2023-05-07T10:55:18;8.90;;;3.70;;
51066;SDS011;37112;45.892;-123.962;2023-05-07T10:57:49;5.80;;;1.60;;
51066;SDS011;37112;45.892;-123.962;2023-05-07T11:00:45;8.60;;;1.40;;
51066;SDS011;37112;45.892;-123.962;2023-05-07T11:03:19;8.10;;;2.00;;
51066;SDS011;37112;45.892;-123.962;2023-05-07T11:06:13;7.50;;;1.80;;
51066;SDS011;37112;45.892;-123.962;2023-05-07T11:08:56;8.10;;;1.80;;
51066;SDS011;37112;45.892;-123.962;2023-05-07T11:11:19;9.00;;;1.80;;
51066;SDS011;37112;45.892;-123.962;2023-05-07T11:14:17;5.90;;;1.40;;
51066;SDS011;37112;45.892;-123.962;2023-05-07T11:17:20;7.40;;;1.50;;
51066;SDS011;37112;45.892;-123.962;2023-05-07T11:19:52;4.50;;;1.60;;
51066;SDS011;37112;45.892;-123.962;2023-05-07T11:22:39;7.20;;;1.30;;
51066;SDS011;37112;45.892;-123.962;2023-05-07T11:25:26;3.30;;;1.20;;
51066;SDS011;37112;45.892;-123.962;2023-05-07T11:28:06;1.30;;;0.60;;
51066;SDS011;37112;45.892;-123.962;2023-05-07T11:30:41;2.70;;;0.90;;
51066;SDS011;37112;45.892;-123.962;2023-05-07T11:33:15;2.10;;;0.90;;
51066;SDS011;37112;45.892;-123.962;2023-05-07T11:35:49;5.30;;;1.00;;
51066;SDS011;37112;45.892;-123.962;2023-05-07T11:38:25;1.90;;;1.00;;
51066;SDS011;37112;45.892;-123.962;2023-05-07T11:41:00;5.00;;;1.10;;
51066;SDS011;37112;45.892;-123.962;2023-05-07T11:43:35;5.10;;;1.70;;
51066;SDS011;37112;45.892;-123.962;2023-05-07T11:46:23;1.60;;;1.00;;
51066;SDS011;37112;45.892;-123.962;2023-05-07T11:48:52;1.90;;;1.00;;
51066;SDS011;37112;45.892;-123.962;2023-05-07T11:51:49;2.70;;;1.00;;
51066;SDS011;37112;45.892;-123.962;2023-05-07T11:54:23;5.10;;;1.10;;
51066;SDS011;37112;45.892;-123.962;2023-05-07T11:57:05;3.70;;;1.10;;
51066;SDS011;37112;45.892;-123.962;2023-05-07T11:59:42;5.20;;;2.40;;
51066;SDS011;37112;45.892;-123.962;2023-05-07T12:02:17;2.40;;;1.00;;
51066;SDS011;37112;45.892;-123.962;2023-05-07T12:04:44;1.80;;;1.20;;
51066;SDS011;37112;45.892;-123.962;2023-05-07T12:07:13;6.50;;;1.20;;
51066;SDS011;37112;45.892;-123.962;2023-05-07T12:09:49;7.00;;;1.40;;
51066;SDS011;37112;45.892;-123.962;2023-05-07T12:12:13;3.90;;;1.40;;
51066;SDS011;37112;45.892;-123.962;2023-05-07T12:14:48;2.60;;;1.00;;
51066;SDS011;37112;45.892;-123.962;2023-05-07T12:17:22;2.90;;;1.00;;
51066;SDS011;37112;45.892;-123.962;2023-05-07T12:19:57;1.40;;;1.10;;
51066;SDS011;37112;45.892;-123.962;2023-05-07T12:22:32;3.60;;;1.10;;
51066;SDS011;37112;45.892;-123.962;2023-05-07T12:25:09;7.20;;;1.20;;
51066;SDS011;37112;45.892;-123.962;2023-05-07T12:27:53;1.30;;;0.70;;
51066;SDS011;37112;45.892;-123.962;2023-05-07T12:30:28;3.00;;;0.90;;
51066;SDS011;37112;45.892;-123.962;2023-05-07T12:35:28;2.90;;;1.30;;
51066;SDS011;37112;45.892;-123.962;2023-05-07T12:38:02;2.60;;;0.90;;
51066;SDS011;37112;45.892;-123.962;2023-05-07T12:40:41;1.70;;;0.70;;
51066;SDS011;37112;45.892;-123.962;2023-05-07T12:43:04;2.00;;;1.00;;
51066;SDS011;37112;45.892;-123.962;2023-05-07T12:45:46;2.40;;;1.00;;
51066;SDS011;37112;45.892;-123.962;2023-05-07T12:48:23;2.90;;;1.20;;
51066;SDS011;37112;45.892;-123.962;2023-05-07T12:51:00;2.80;;;1.20;;
51066;SDS011;37112;45.892;-123.962;2023-05-07T12:53:39;6.00;;;1.10;;
51066;SDS011;37112;45.892;-123.962;2023-05-07T12:56:15;1.20;;;1.10;;
51066;SDS011;37112;45.892;-123.962;2023-05-07T12:58:50;11.80;;;1.30;;
51066;SDS011;37112;45.892;-123.962;2023-05-07T13:01:17;1.80;;;1.00;;
51066;SDS011;37112;45.892;-123.962;2023-05-07T13:03:48;3.30;;;1.50;;
51066;SDS011;37112;45.892;-123.962;2023-05-07T13:06:22;6.00;;;1.60;;
51066;SDS011;37112;45.892;-123.962;2023-05-07T13:08:52;3.30;;;1.40;;
51066;SDS011;37112;45.892;-123.962;2023-05-07T13:11:20;2.50;;;1.50;;
51066;SDS011;37112;45.892;-123.962;2023-05-07T13:13:54;6.50;;;2.00;;
51066;SDS011;37112;45.892;-123.962;2023-05-07T13:16:18;3.20;;;1.10;;
51066;SDS011;37112;45.892;-123.962;2023-05-07T13:18:52;4.90;;;1.20;;
51066;SDS011;37112;45.892;-123.962;2023-05-07T13:21:27;2.70;;;1.00;;
51066;SDS011;37112;45.892;-123.962;2023-05-07T13:24:01;2.30;;;1.10;;
51066;SDS011;37112;45.892;-123.962;2023-05-07T13:26:29;1.80;;;1.00;;
51066;SDS011;37112;45.892;-123.962;2023-05-07T13:29:03;4.90;;;1.40;;
51066;SDS011;37112;45.892;-123.962;2023-05-07T13:31:40;3.60;;;1.40;;
51066;SDS011;37112;45.892;-123.962;2023-05-07T13:34:16;2.40;;;1.50;;
51066;SDS011;37112;45.892;-123.962;2023-05-07T13:36:49;2.00;;;1.30;;
51066;SDS011;37112;45.892;-123.962;2023-05-07T13:39:24;3.60;;;1.10;;
51066;SDS011;37112;45.892;-123.962;2023-05-07T13:42:00;2.60;;;1.20;;
51066;SDS011;37112;45.892;-123.962;2023-05-07T13:44:23;2.20;;;1.10;;
51066;SDS011;37112;45.892;-123.962;2023-05-07T13:47:00;3.70;;;1.70;;
51066;SDS011;37112;45.892;-123.962;2023-05-07T13:49:28;3.60;;;1.30;;
51066;SDS011;37112;45.892;-123.962;2023-05-07T13:52:03;2.20;;;1.30;;
51066;SDS011;37112;45.892;-123.962;2023-05-07T13:54:37;6.80;;;1.20;;
51066;SDS011;37112;45.892;-123.962;2023-05-07T13:57:12;4.70;;;1.30;;
51066;SDS011;37112;45.892;-123.962;2023-05-07T13:59:46;2.80;;;1.20;;
51066;SDS011;37112;45.892;-123.962;2023-05-07T14:02:20;1.80;;;1.00;;
51066;SDS011;37112;45.892;-123.962;2023-05-07T14:04:54;2.50;;;1.00;;
51066;SDS011;37112;45.892;-123.962;2023-05-07T14:07:23;3.40;;;1.50;;
51066;SDS011;37112;45.892;-123.962;2023-05-07T14:09:57;1.60;;;1.10;;
51066;SDS011;37112;45.892;-123.962;2023-05-07T14:12:25;1.60;;;1.20;;
51066;SDS011;37112;45.892;-123.962;2023-05-07T14:14:56;2.30;;;1.40;;
51066;SDS011;37112;45.892;-123.962;2023-05-07T14:17:30;5.30;;;1.30;;
51066;SDS011;37112;45.892;-123.962;2023-05-07T14:20:05;2.60;;;1.00;;
51066;SDS011;37112;45.892;-123.962;2023-05-07T14:22:42;2.90;;;0.90;;
51066;SDS011;37112;45.892;-123.962;2023-05-07T14:25:16;4.30;;;1.00;;
51066;SDS011;37112;45.892;-123.962;2023-05-07T14:27:51;2.50;;;1.80;;
51066;SDS011;37112;45.892;-123.962;2023-05-07T14:30:15;2.70;;;1.40;;
51066;SDS011;37112;45.892;-123.962;2023-05-07T14:32:52;2.80;;;1.00;;
51066;SDS011;37112;45.892;-123.962;2023-05-07T14:35:25;3.20;;;0.80;;
51066;SDS011;37112;45.892;-123.962;2023-05-07T14:37:48;3.60;;;1.00;;